createdAt,value
2022-09-10T00:01:02.213Z,100683.50
2022-09-10T00:02:05.264Z,100674.86
2022-09-10T00:03:07.983Z,100663.72
2022-09-10T00:04:10.482Z,100678.14
2022-09-10T00:05:12.917Z,100674.05
2022-09-10T00:06:15.865Z,100670.79
2022-09-10T00:07:18.308Z,100672.25
2022-09-10T00:08:20.750Z,100668.05
2022-09-10T00:09:23.238Z,100662.17
2022-09-10T00:10:26.514Z,100668.76
2022-09-10T00:11:28.948Z,100667.28
2022-09-10T00:12:31.613Z,100662.88
2022-09-10T00:13:34.069Z,100665.62
2022-09-10T00:14:36.605Z,100662.23
2022-09-10T00:15:39.045Z,100659.52
2022-09-10T00:16:41.587Z,100656.77
2022-09-10T00:17:44.246Z,100666.56
2022-09-10T00:18:46.682Z,100669.61
2022-09-10T00:19:49.160Z,100668.64
2022-09-10T00:20:52.020Z,100663.30
2022-09-10T00:21:54.764Z,100658.13
2022-09-10T00:22:57.318Z,100665.08
2022-09-10T00:23:59.765Z,100669.48
2022-09-10T00:25:06.235Z,100665.80
2022-09-10T00:26:06.905Z,100671.81
2022-09-10T00:27:09.377Z,100675.16
2022-09-10T00:28:11.843Z,100670.87
2022-09-10T00:29:14.603Z,100667.91
2022-09-10T00:30:18.188Z,100678.42
2022-09-10T00:31:20.864Z,100673.08
2022-09-10T00:32:23.314Z,100673.08
2022-09-10T00:33:25.761Z,100680.75
2022-09-10T00:34:28.248Z,100675.49
2022-09-10T00:35:30.766Z,100674.55
2022-09-10T00:36:33.728Z,100671.20
2022-09-10T00:37:36.165Z,100672.77
2022-09-10T00:38:38.670Z,100668.58
2022-09-10T00:39:41.312Z,100672.36
2022-09-10T00:40:44.063Z,100658.89
2022-09-10T00:41:46.619Z,100658.65
2022-09-10T00:42:49.094Z,100658.14
2022-09-10T00:43:51.611Z,100656.75
2022-09-10T00:44:54.049Z,100651.20
2022-09-10T00:45:56.605Z,100654.66
2022-09-10T00:46:59.333Z,100652.88
2022-09-10T00:48:01.775Z,100649.29
2022-09-10T00:49:04.228Z,100659.70
2022-09-10T00:50:07.079Z,100651.07
2022-09-10T00:51:09.550Z,100658.14
2022-09-10T00:52:12.019Z,100662.33
2022-09-10T00:53:14.464Z,100652.03
2022-09-10T00:54:16.941Z,100647.72
2022-09-10T00:55:19.393Z,100650.56
2022-09-10T00:56:22.830Z,100656.75
2022-09-10T00:57:25.269Z,100656.33
2022-09-10T00:58:27.714Z,100653.82
2022-09-10T00:59:30.162Z,100650.65
2022-09-10T01:00:33.125Z,100646.23
2022-09-10T01:01:35.633Z,100662.76
2022-09-10T01:02:38.427Z,100656.84
2022-09-10T01:03:40.890Z,100651.16
2022-09-10T01:04:43.332Z,100665.09
2022-09-10T01:05:45.780Z,100653.45
2022-09-10T01:06:48.558Z,100648.83
2022-09-10T01:07:51.231Z,100653.15
2022-09-10T01:08:53.672Z,100662.68
2022-09-10T01:09:56.121Z,100657.55
2022-09-10T01:10:58.904Z,100669.20
2022-09-10T01:12:03.757Z,100666.28
2022-09-10T01:13:05.985Z,100670.17
2022-09-10T01:14:08.478Z,100666.70
2022-09-10T01:15:10.949Z,100660.90
2022-09-10T01:16:14.146Z,100675.08
2022-09-10T01:17:16.690Z,100668.86
2022-09-10T01:18:19.151Z,100667.80
2022-09-10T01:19:22.026Z,100663.59
2022-09-10T01:20:24.771Z,100652.45
2022-09-10T01:21:27.763Z,100655.25
2022-09-10T01:22:30.452Z,100648.69
2022-09-10T01:23:32.896Z,100651.70
2022-09-10T01:24:35.358Z,100655.58
2022-09-10T01:25:37.810Z,100659.69
2022-09-10T01:26:40.460Z,100660.20
2022-09-10T01:27:43.077Z,100661.05
2022-09-10T01:28:45.610Z,100654.88
2022-09-10T01:29:48.058Z,100656.23
2022-09-10T01:30:50.808Z,100657.00
2022-09-10T01:31:53.575Z,100652.59
2022-09-10T01:32:56.063Z,100659.41
2022-09-10T01:33:58.522Z,100661.20
2022-09-10T01:35:00.959Z,100657.72
2022-09-10T01:36:03.607Z,100665.52
2022-09-10T01:37:06.051Z,100669.07
2022-09-10T01:38:08.552Z,100670.77
2022-09-10T01:39:11.010Z,100674.23
2022-09-10T01:40:13.976Z,100671.81
2022-09-10T01:41:16.419Z,100672.45
2022-09-10T01:42:18.907Z,100674.12
2022-09-10T01:43:21.688Z,100674.23
2022-09-10T01:44:24.133Z,100673.39
2022-09-10T01:45:26.602Z,100673.30
2022-09-10T01:46:29.951Z,100672.45
2022-09-10T01:47:32.627Z,100677.59
2022-09-10T01:48:35.148Z,100673.69
2022-09-10T01:49:37.589Z,100672.84
2022-09-10T01:50:40.334Z,100668.34
2022-09-10T01:51:42.785Z,100667.80
2022-09-10T01:52:45.221Z,100669.48
2022-09-10T01:53:47.731Z,100661.70
2022-09-10T01:54:50.173Z,100659.78
2022-09-10T01:55:52.632Z,100660.83
2022-09-10T01:56:55.376Z,100661.97
2022-09-10T01:57:57.849Z,100665.95
2022-09-10T01:59:00.454Z,100665.95
2022-09-10T02:00:03.106Z,100659.78
2022-09-10T02:01:05.789Z,100671.33
2022-09-10T02:02:08.507Z,100679.93
2022-09-10T02:03:11.449Z,100685.38
2022-09-10T02:04:14.236Z,100681.42
2022-09-10T02:05:16.690Z,100686.46
2022-09-10T02:06:20.088Z,100685.44
2022-09-10T02:07:22.833Z,100675.23
2022-09-10T02:08:25.276Z,100667.56
2022-09-10T02:09:27.772Z,100659.98
2022-09-10T02:10:31.044Z,100658.00
2022-09-10T02:11:33.478Z,100657.23
2022-09-10T02:12:35.918Z,100668.70
2022-09-10T02:13:38.358Z,100665.44
2022-09-10T02:14:41.182Z,100673.39
2022-09-10T02:15:43.637Z,100672.47
2022-09-10T02:16:46.500Z,100677.72
2022-09-10T02:17:48.979Z,100670.27
2022-09-10T02:18:51.893Z,100674.59
2022-09-10T02:19:54.387Z,100675.52
2022-09-10T02:20:57.130Z,100671.33
2022-09-10T02:21:59.578Z,100674.88
2022-09-10T02:23:02.122Z,100684.13
2022-09-10T02:24:04.609Z,100675.52
2022-09-10T02:25:07.081Z,100672.34
2022-09-10T02:26:10.121Z,100674.68
2022-09-10T02:27:12.592Z,100670.48
2022-09-10T02:28:15.031Z,100675.61
2022-09-10T02:29:17.608Z,100674.24
2022-09-10T02:30:21.520Z,100670.36
2022-09-10T02:31:24.086Z,100672.98
2022-09-10T02:32:26.859Z,100669.63
2022-09-10T02:33:29.299Z,100678.84
2022-09-10T02:34:31.745Z,100671.06
2022-09-10T02:35:34.516Z,100674.24
2022-09-10T02:36:37.475Z,100675.38
2022-09-10T02:37:39.916Z,100671.70
2022-09-10T02:38:42.362Z,100676.72
2022-09-10T02:39:44.837Z,100674.94
2022-09-10T02:40:47.861Z,100666.02
2022-09-10T02:41:51.716Z,100663.39
2022-09-10T02:42:54.388Z,100669.37
2022-09-10T02:43:56.882Z,100662.45
2022-09-10T02:44:59.320Z,100654.37
2022-09-10T02:46:01.821Z,100656.36
2022-09-10T02:47:04.524Z,100648.48
2022-09-10T02:48:06.961Z,100650.83
2022-09-10T02:49:09.449Z,100660.77
2022-09-10T02:50:12.191Z,100665.17
2022-09-10T02:51:14.661Z,100655.52
2022-09-10T02:52:17.133Z,100657.00
2022-09-10T02:53:19.596Z,100661.20
2022-09-10T02:54:22.031Z,100662.17
2022-09-10T02:55:24.524Z,100652.60
2022-09-10T02:56:28.529Z,100656.80
2022-09-10T02:57:30.963Z,100653.24
2022-09-10T02:58:33.425Z,100651.34
2022-09-10T02:59:35.864Z,100646.09
2022-09-10T03:00:38.805Z,100655.11
2022-09-10T03:01:41.546Z,100658.49
2022-09-10T03:02:44.235Z,100657.36
2022-09-10T03:03:46.671Z,100659.78
2022-09-10T03:04:49.121Z,100668.58
2022-09-10T03:05:51.573Z,100663.05
2022-09-10T03:06:54.311Z,100665.46
2022-09-10T03:07:56.749Z,100674.39
2022-09-10T03:08:59.184Z,100671.35
2022-09-10T03:10:01.647Z,100675.32
2022-09-10T03:11:04.109Z,100668.30
2022-09-10T03:12:06.590Z,100673.25
2022-09-10T03:13:09.064Z,100661.99
2022-09-10T03:14:11.500Z,100668.55
2022-09-10T03:15:13.934Z,100669.28
2022-09-10T03:16:18.200Z,100668.73
2022-09-10T03:17:20.641Z,100675.75
2022-09-10T03:18:23.082Z,100683.55
2022-09-10T03:19:25.530Z,100677.07
2022-09-10T03:20:29.285Z,100684.83
2022-09-10T03:21:31.919Z,100683.89
2022-09-10T03:22:34.434Z,100684.83
2022-09-10T03:23:37.520Z,100691.48
2022-09-10T03:24:40.055Z,100685.97
2022-09-10T03:25:42.494Z,100681.47
2022-09-10T03:26:45.034Z,100690.72
2022-09-10T03:27:47.622Z,100690.84
2022-09-10T03:28:50.123Z,100693.25
2022-09-10T03:29:52.634Z,100692.00
2022-09-10T03:30:55.379Z,100698.30
2022-09-10T03:31:57.834Z,100695.47
2022-09-10T03:33:00.628Z,100705.04
2022-09-10T03:34:03.066Z,100696.61
2022-09-10T03:35:05.500Z,100697.66
2022-09-10T03:36:08.373Z,100691.77
2022-09-10T03:37:11.020Z,100698.72
2022-09-10T03:38:13.499Z,100698.08
2022-09-10T03:39:15.931Z,100697.44
2022-09-10T03:40:19.699Z,100704.90
2022-09-10T03:41:22.135Z,100703.00
2022-09-10T03:42:25.013Z,100696.73
2022-09-10T03:43:27.676Z,100696.81
2022-09-10T03:44:30.120Z,100703.41
2022-09-10T03:45:32.635Z,100706.47
2022-09-10T03:46:36.001Z,100707.31
2022-09-10T03:47:38.448Z,100702.91
2022-09-10T03:48:40.940Z,100698.22
2022-09-10T03:49:43.463Z,100690.72
2022-09-10T03:50:46.712Z,100695.47
2022-09-10T03:51:49.698Z,100688.55
2022-09-10T03:52:52.154Z,100691.82
2022-09-10T03:53:54.613Z,100699.88
2022-09-10T03:54:57.044Z,100695.09
2022-09-10T03:55:59.510Z,100703.30
2022-09-10T03:57:02.673Z,100705.94
2022-09-10T03:58:05.156Z,100701.19
2022-09-10T03:59:07.822Z,100700.98
2022-09-10T04:00:10.666Z,100706.24
2022-09-10T04:01:13.189Z,100693.86
2022-09-10T04:02:16.182Z,100697.34
2022-09-10T04:03:19.028Z,100684.08
2022-09-10T04:04:21.486Z,100683.77
2022-09-10T04:05:23.931Z,100677.47
2022-09-10T04:06:27.274Z,100687.34
2022-09-10T04:07:29.716Z,100677.77
2022-09-10T04:08:32.368Z,100681.15
2022-09-10T04:09:34.853Z,100671.66
2022-09-10T04:10:37.700Z,100667.80
2022-09-10T04:11:40.128Z,100667.80
2022-09-10T04:12:42.574Z,100651.73
2022-09-10T04:13:45.042Z,100663.52
2022-09-10T04:14:47.510Z,100658.86
2022-09-10T04:15:49.952Z,100651.61
2022-09-10T04:16:52.907Z,100651.40
2022-09-10T04:17:55.351Z,100652.37
2022-09-10T04:18:57.915Z,100662.45
2022-09-10T04:20:00.416Z,100660.24
2022-09-10T04:21:02.876Z,100666.04
2022-09-10T04:22:05.322Z,100665.52
2022-09-10T04:23:07.874Z,100670.69
2022-09-10T04:24:10.310Z,100674.13
2022-09-10T04:25:12.842Z,100678.88
2022-09-10T04:26:16.192Z,100686.33
2022-09-10T04:27:18.828Z,100685.39
2022-09-10T04:28:21.563Z,100685.72
2022-09-10T04:29:24.042Z,100682.78
2022-09-10T04:30:28.153Z,100693.06
2022-09-10T04:31:30.694Z,100684.56
2022-09-10T04:32:33.204Z,100679.72
2022-09-10T04:33:35.641Z,100677.80
2022-09-10T04:34:38.093Z,100675.52
2022-09-10T04:35:40.909Z,100677.52
2022-09-10T04:36:43.751Z,100668.34
2022-09-10T04:37:46.229Z,100666.03
2022-09-10T04:38:48.873Z,100666.97
2022-09-10T04:39:51.846Z,100666.03
2022-09-10T04:40:54.797Z,100671.83
2022-09-10T04:41:57.272Z,100666.97
2022-09-10T04:42:59.826Z,100664.97
2022-09-10T04:44:02.293Z,100675.27
2022-09-10T04:45:04.729Z,100672.14
2022-09-10T04:46:07.549Z,100669.60
2022-09-10T04:47:10.244Z,100662.11
2022-09-10T04:48:12.701Z,100670.05
2022-09-10T04:49:15.146Z,100671.70
2022-09-10T04:50:19.121Z,100668.04
2022-09-10T04:51:21.605Z,100671.16
2022-09-10T04:52:24.154Z,100669.60
2022-09-10T04:53:26.599Z,100670.44
2022-09-10T04:54:29.083Z,100677.39
2022-09-10T04:55:31.630Z,100683.08
2022-09-10T04:56:34.562Z,100688.13
2022-09-10T04:57:37.006Z,100686.73
2022-09-10T04:58:39.587Z,100684.33
2022-09-10T04:59:42.224Z,100687.81
2022-09-10T05:00:44.905Z,100680.01
2022-09-10T05:01:47.668Z,100685.98
2022-09-10T05:02:50.522Z,100698.95
2022-09-10T05:03:52.963Z,100686.81
2022-09-10T05:04:55.885Z,100688.59
2022-09-10T05:05:58.448Z,100699.33
2022-09-10T05:07:01.233Z,100695.40
2022-09-10T05:08:03.736Z,100698.33
2022-09-10T05:09:06.329Z,100697.48
2022-09-10T05:10:09.282Z,100696.02
2022-09-10T05:11:11.744Z,100698.36
2022-09-10T05:12:14.252Z,100691.69
2022-09-10T05:13:16.718Z,100695.40
2022-09-10T05:14:19.186Z,100687.89
2022-09-10T05:15:23.464Z,100687.89
2022-09-10T05:16:27.177Z,100678.88
2022-09-10T05:17:29.905Z,100682.97
2022-09-10T05:18:32.372Z,100691.39
2022-09-10T05:19:34.818Z,100701.46
2022-09-10T05:20:37.464Z,100706.95
2022-09-10T05:21:39.908Z,100713.03
2022-09-10T05:22:42.379Z,100714.20
2022-09-10T05:23:44.854Z,100704.09
2022-09-10T05:24:47.404Z,100715.48
2022-09-10T05:25:49.849Z,100715.75
2022-09-10T05:26:52.518Z,100710.14
2022-09-10T05:27:54.975Z,100711.09
2022-09-10T05:28:57.429Z,100708.52
2022-09-10T05:29:59.897Z,100706.22
2022-09-10T05:31:02.405Z,100699.28
2022-09-10T05:32:04.858Z,100699.09
2022-09-10T05:33:07.362Z,100686.48
2022-09-10T05:34:09.834Z,100691.22
2022-09-10T05:35:12.279Z,100696.49
2022-09-10T05:36:16.555Z,100688.21
2022-09-10T05:37:18.990Z,100689.45
2022-09-10T05:38:21.704Z,100691.01
2022-09-10T05:39:24.162Z,100700.38
2022-09-10T05:40:26.917Z,100693.56
2022-09-10T05:41:29.355Z,100702.56
2022-09-10T05:42:33.221Z,100704.45
2022-09-10T05:43:35.907Z,100692.30
2022-09-10T05:44:38.353Z,100697.02
2022-09-10T05:45:40.837Z,100692.36
2022-09-10T05:46:43.856Z,100688.53
2022-09-10T05:47:46.527Z,100696.70
2022-09-10T05:48:49.088Z,100695.98
2022-09-10T05:49:51.602Z,100701.27
2022-09-10T05:50:54.556Z,100702.05
2022-09-10T05:51:57.070Z,100698.66
2022-09-10T05:52:59.508Z,100693.84
2022-09-10T05:54:02.028Z,100701.55
2022-09-10T05:55:04.462Z,100703.48
2022-09-10T05:56:07.618Z,100696.03
2022-09-10T05:57:10.265Z,100699.16
2022-09-10T05:58:12.731Z,100697.02
2022-09-10T05:59:15.214Z,100701.27
2022-09-10T06:00:18.264Z,100690.16
2022-09-10T06:01:21.231Z,100689.27
2022-09-10T06:02:24.443Z,100681.49
2022-09-10T06:03:27.561Z,100688.01
2022-09-10T06:04:30.277Z,100680.33
2022-09-10T06:05:32.721Z,100689.94
2022-09-10T06:06:35.813Z,100688.14
2022-09-10T06:07:38.252Z,100692.68
2022-09-10T06:08:40.823Z,100686.44
2022-09-10T06:09:43.609Z,100689.09
2022-09-10T06:10:46.453Z,100688.24
2022-09-10T06:11:48.941Z,100688.95
2022-09-10T06:12:51.404Z,100688.84
2022-09-10T06:13:53.870Z,100687.14
2022-09-10T06:14:56.436Z,100682.61
2022-09-10T06:15:58.877Z,100687.63
2022-09-10T06:17:01.631Z,100681.98
2022-09-10T06:18:04.286Z,100678.70
2022-09-10T06:19:06.733Z,100685.17
2022-09-10T06:20:09.604Z,100679.23
2022-09-10T06:21:13.167Z,100687.70
2022-09-10T06:22:16.534Z,100687.59
2022-09-10T06:23:19.183Z,100682.64
2022-09-10T06:24:21.619Z,100688.91
2022-09-10T06:25:24.138Z,100693.65
2022-09-10T06:26:26.881Z,100697.90
2022-09-10T06:27:29.329Z,100699.13
2022-09-10T06:28:31.841Z,100699.45
2022-09-10T06:29:34.567Z,100697.87
2022-09-10T06:30:37.305Z,100697.28
2022-09-10T06:31:39.820Z,100702.93
2022-09-10T06:32:42.271Z,100701.21
2022-09-10T06:33:44.922Z,100693.83
2022-09-10T06:34:47.372Z,100698.83
2022-09-10T06:35:53.187Z,100691.92
2022-09-10T06:36:54.498Z,100690.77
2022-09-10T06:37:56.980Z,100690.39
2022-09-10T06:38:59.539Z,100690.07
2022-09-10T06:40:02.089Z,100691.37
2022-09-10T06:41:04.898Z,100695.14
2022-09-10T06:42:07.520Z,100697.14
2022-09-10T06:43:09.985Z,100692.08
2022-09-10T06:44:12.458Z,100702.43
2022-09-10T06:45:14.894Z,100707.06
2022-09-10T06:46:56.906Z,100698.56
2022-09-10T06:48:47.561Z,100700.57
2022-09-10T06:49:32.000Z,100704.57
2022-09-10T06:50:34.649Z,100701.11
2022-09-10T06:51:37.146Z,100702.77
2022-09-10T06:52:39.768Z,100705.59
2022-09-10T06:53:42.457Z,100711.19
2022-09-10T06:54:44.905Z,100707.64
2022-09-10T06:55:47.381Z,100708.30
2022-09-10T06:56:50.153Z,100703.67
2022-09-10T06:57:52.593Z,100710.28
2022-09-10T06:58:55.057Z,100700.30
2022-09-10T07:01:13.824Z,100697.80
2022-09-10T07:02:16.758Z,100695.27
2022-09-10T07:03:19.608Z,100693.11
2022-09-10T07:04:22.044Z,100694.07
2022-09-10T07:05:24.552Z,100700.66
2022-09-10T07:06:28.539Z,100701.67
2022-09-10T07:07:31.111Z,100698.61
2022-09-10T07:08:33.856Z,100692.72
2022-09-10T07:09:36.312Z,100708.42
2022-09-10T07:10:39.204Z,100695.95
2022-09-10T07:11:42.048Z,100705.48
2022-09-10T07:12:44.996Z,100703.58
2022-09-10T07:13:47.465Z,100699.52
2022-09-10T07:14:49.907Z,100705.17
2022-09-10T07:15:52.384Z,100704.57
2022-09-10T07:16:55.203Z,100700.39
2022-09-10T07:17:57.692Z,100699.61
2022-09-10T07:19:00.156Z,100700.20
2022-09-10T07:20:02.910Z,100684.56
2022-09-10T07:21:05.355Z,100690.28
2022-09-10T07:22:08.382Z,100692.26
2022-09-10T07:23:12.836Z,100686.86
2022-09-10T07:24:15.514Z,100682.45
2022-09-10T07:25:17.974Z,100671.80
2022-09-10T07:26:21.118Z,100681.25
2022-09-10T07:27:23.576Z,100683.06
2022-09-10T07:28:26.119Z,100680.60
2022-09-10T07:29:28.568Z,100685.66
2022-09-10T07:30:31.519Z,100683.08
2022-09-10T07:31:33.999Z,100670.45
2022-09-10T07:32:36.433Z,100669.88
2022-09-10T07:33:38.953Z,100676.59
2022-09-10T07:34:41.539Z,100673.89
2022-09-10T07:35:44.002Z,100674.63
2022-09-10T07:36:46.557Z,100674.12
2022-09-10T07:37:49.003Z,100675.23
2022-09-10T07:38:51.480Z,100677.37
2022-09-10T07:39:53.948Z,100678.28
2022-09-10T07:40:56.664Z,100678.73
2022-09-10T07:41:59.113Z,100674.48
2022-09-10T07:43:01.663Z,100667.00
2022-09-10T07:44:04.141Z,100666.78
2022-09-10T07:45:06.583Z,100671.69
2022-09-10T07:46:09.680Z,100675.02
2022-09-10T07:47:12.103Z,100666.64
2022-09-10T07:48:14.651Z,100659.54
2022-09-10T07:49:17.122Z,100658.69
2022-09-10T07:50:21.410Z,100651.50
2022-09-10T07:51:23.940Z,100653.31
2022-09-10T07:52:26.409Z,100645.18
2022-09-10T07:53:28.858Z,100645.35
2022-09-10T07:54:31.631Z,100644.09
2022-09-10T07:55:34.071Z,100639.41
2022-09-10T07:56:36.922Z,100636.95
2022-09-10T07:57:39.399Z,100642.20
2022-09-10T07:58:41.838Z,100630.37
2022-09-10T07:59:44.315Z,100634.41
2022-09-10T08:00:47.059Z,100633.81
2022-09-10T08:01:49.775Z,100629.59
2022-09-10T08:02:52.372Z,100629.02
2022-09-10T08:03:55.015Z,100628.94
2022-09-10T08:04:57.508Z,100625.44
2022-09-10T08:05:59.950Z,100627.02
2022-09-10T08:07:02.401Z,100618.34
2022-09-10T08:08:04.841Z,100623.95
2022-09-10T08:09:07.283Z,100625.98
2022-09-10T08:10:10.163Z,100620.19
2022-09-10T08:11:12.620Z,100618.78
2022-09-10T08:12:15.068Z,100625.06
2022-09-10T08:13:17.814Z,100617.43
2022-09-10T08:14:20.275Z,100613.83
2022-09-10T08:15:22.883Z,100624.00
2022-09-10T08:16:25.838Z,100622.19
2022-09-10T08:17:28.301Z,100617.17
2022-09-10T08:18:30.857Z,100616.33
2022-09-10T08:19:33.589Z,100613.09
2022-09-10T08:20:36.253Z,100612.30
2022-09-10T08:21:38.695Z,100618.47
2022-09-10T08:22:41.239Z,100618.24
2022-09-10T08:23:43.688Z,100616.19
2022-09-10T08:24:46.159Z,100612.91
2022-09-10T08:25:49.284Z,100605.69
2022-09-10T08:26:51.967Z,100604.45
2022-09-10T08:27:54.573Z,100598.76
2022-09-10T08:28:57.007Z,100597.48
2022-09-10T08:29:59.505Z,100611.61
2022-09-10T08:31:02.443Z,100601.17
2022-09-10T08:32:04.923Z,100601.28
2022-09-10T08:33:07.366Z,100595.55
2022-09-10T08:34:09.809Z,100599.42
2022-09-10T08:35:12.255Z,100598.43
2022-09-10T08:36:16.528Z,100600.58
2022-09-10T08:37:19.188Z,100591.91
2022-09-10T08:38:21.628Z,100595.67
2022-09-10T08:39:24.286Z,100602.45
2022-09-10T08:40:27.539Z,100600.44
2022-09-10T08:41:30.662Z,100602.92
2022-09-10T08:42:33.521Z,100604.45
2022-09-10T08:43:35.961Z,100601.88
2022-09-10T08:44:38.404Z,100593.89
2022-09-10T08:45:40.860Z,100602.38
2022-09-10T08:46:43.622Z,100605.75
2022-09-10T08:47:46.070Z,100598.75
2022-09-10T08:48:48.515Z,100594.41
2022-09-10T08:49:50.953Z,100603.08
2022-09-10T08:50:53.605Z,100604.44
2022-09-10T08:51:56.110Z,100599.73
2022-09-10T08:52:58.553Z,100601.59
2022-09-10T08:54:00.992Z,100606.27
2022-09-10T08:55:03.467Z,100610.50
2022-09-10T08:56:06.318Z,100604.55
2022-09-10T08:57:08.800Z,100595.70
2022-09-10T08:58:11.242Z,100600.58
2022-09-10T08:59:13.685Z,100604.23
2022-09-10T09:00:17.982Z,100603.75
2022-09-10T09:01:20.462Z,100609.03
2022-09-10T09:02:47.183Z,100594.72
2022-09-10T09:03:27.851Z,100611.19
2022-09-10T09:04:30.301Z,100606.28
2022-09-10T09:05:32.734Z,100607.27
2022-09-10T09:06:35.484Z,100604.34
2022-09-10T09:07:38.169Z,100601.91
2022-09-10T09:08:40.985Z,100616.02
2022-09-10T09:09:43.860Z,100611.03
2022-09-10T09:10:46.841Z,100615.53
2022-09-10T09:11:49.300Z,100604.61
2022-09-10T09:12:51.784Z,100598.26
2022-09-10T09:13:54.213Z,100601.12
2022-09-10T09:14:56.657Z,100607.17
2022-09-10T09:15:59.124Z,100609.13
2022-09-10T09:17:01.982Z,100604.99
2022-09-10T09:18:04.476Z,100601.22
2022-09-10T09:19:06.910Z,100604.83
2022-09-10T09:20:09.859Z,100605.48
2022-09-10T09:21:12.525Z,100600.48
2022-09-10T09:22:14.994Z,100599.86
2022-09-10T09:23:17.580Z,100604.94
2022-09-10T09:24:20.018Z,100604.90
2022-09-10T09:25:22.458Z,100603.02
2022-09-10T09:26:26.757Z,100602.22
2022-09-10T09:27:29.189Z,100603.06
2022-09-10T09:28:32.342Z,100587.70
2022-09-10T09:29:34.755Z,100591.03
2022-09-10T09:30:37.500Z,100593.41
2022-09-10T09:31:40.136Z,100592.08
2022-09-10T09:32:42.611Z,100597.08
2022-09-10T09:33:45.099Z,100592.58
2022-09-10T09:34:47.520Z,100598.03
2022-09-10T09:35:50.006Z,100595.25
2022-09-10T09:36:52.842Z,100585.72
2022-09-10T09:37:55.294Z,100584.19
2022-09-10T09:38:57.789Z,100587.36
2022-09-10T09:40:00.357Z,100578.03
2022-09-10T09:41:03.299Z,100583.70
2022-09-10T09:42:05.968Z,100580.88
2022-09-10T09:43:08.410Z,100586.41
2022-09-10T09:44:10.985Z,100595.09
2022-09-10T09:45:13.423Z,100577.06
2022-09-10T09:46:16.312Z,100579.23
2022-09-10T09:47:18.758Z,100575.03
2022-09-10T09:48:21.194Z,100575.87
2022-09-10T09:49:23.666Z,100572.39
2022-09-10T09:50:26.413Z,100575.12
2022-09-10T09:51:28.852Z,100576.03
2022-09-10T09:52:31.286Z,100563.98
2022-09-10T09:53:33.737Z,100563.61
2022-09-10T09:55:09.992Z,100560.69
2022-09-10T09:55:40.568Z,100568.70
2022-09-10T09:56:43.301Z,100558.27
2022-09-10T09:57:46.040Z,100561.88
2022-09-10T09:58:48.698Z,100560.78
2022-09-10T09:59:51.175Z,100558.01
2022-09-10T10:00:54.289Z,100555.23
2022-09-10T10:01:57.047Z,100558.55
2022-09-10T10:03:00.033Z,100558.84
2022-09-10T10:04:02.567Z,100559.47
2022-09-10T10:05:05.077Z,100558.80
2022-09-10T10:06:07.921Z,100560.30
2022-09-10T10:07:10.374Z,100563.22
2022-09-10T10:08:12.814Z,100558.00
2022-09-10T10:09:15.290Z,100553.83
2022-09-10T10:10:18.972Z,100560.25
2022-09-10T10:11:21.450Z,100567.13
2022-09-10T10:12:23.887Z,100549.78
2022-09-10T10:13:26.312Z,100552.81
2022-09-10T10:14:28.747Z,100549.88
2022-09-10T10:15:31.312Z,100562.64
2022-09-10T10:16:34.614Z,100558.08
2022-09-10T10:17:37.050Z,100554.72
2022-09-10T10:18:39.647Z,100553.73
2022-09-10T10:19:42.349Z,100545.53
2022-09-10T10:20:45.029Z,100547.98
2022-09-10T10:21:47.574Z,100549.29
2022-09-10T10:22:50.331Z,100550.59
2022-09-10T10:23:52.771Z,100549.88
2022-09-10T10:24:55.344Z,100555.81
2022-09-10T10:25:57.811Z,100546.34
2022-09-10T10:27:00.460Z,100546.66
2022-09-10T10:28:02.899Z,100549.87
2022-09-10T10:29:05.347Z,100551.95
2022-09-10T10:30:09.454Z,100537.95
2022-09-10T10:31:12.007Z,100546.83
2022-09-10T10:32:14.503Z,100546.89
2022-09-10T10:33:16.948Z,100552.34
2022-09-10T10:34:19.391Z,100542.89
2022-09-10T10:35:21.876Z,100543.05
2022-09-10T10:36:26.164Z,100533.56
2022-09-10T10:37:28.612Z,100531.69
2022-09-10T10:38:31.179Z,100525.87
2022-09-10T10:39:34.043Z,100520.72
2022-09-10T10:40:37.675Z,100518.67
2022-09-10T10:41:40.258Z,100517.34
2022-09-10T10:42:42.695Z,100516.77
2022-09-10T10:43:45.190Z,100518.98
2022-09-10T10:44:47.940Z,100520.20
2022-09-10T10:45:50.627Z,100515.37
2022-09-10T10:46:53.938Z,100509.84
2022-09-10T10:47:56.567Z,100500.23
2022-09-10T10:49:03.539Z,100508.58
2022-09-10T10:50:03.464Z,100512.37
2022-09-10T10:51:05.932Z,100522.05
2022-09-10T10:52:08.409Z,100514.00
2022-09-10T10:53:10.851Z,100519.73
2022-09-10T10:54:13.317Z,100512.86
2022-09-10T10:55:15.857Z,100509.48
2022-09-10T10:56:18.808Z,100519.88
2022-09-10T10:57:21.346Z,100519.69
2022-09-10T10:58:23.890Z,100511.86
2022-09-10T10:59:26.342Z,100510.69
2022-09-10T11:00:29.804Z,100506.00
2022-09-10T11:01:32.337Z,100509.82
2022-09-10T11:02:35.000Z,100511.03
2022-09-10T11:03:37.491Z,100511.81
2022-09-10T11:04:39.930Z,100510.48
2022-09-10T11:05:42.389Z,100507.92
2022-09-10T11:06:45.229Z,100507.92
2022-09-10T11:07:47.728Z,100505.81
2022-09-10T11:08:50.168Z,100508.00
2022-09-10T11:09:52.606Z,100506.48
2022-09-10T11:10:55.253Z,100495.28
2022-09-10T11:11:57.693Z,100500.12
2022-09-10T11:13:00.178Z,100498.19
2022-09-10T11:14:02.616Z,100494.34
2022-09-10T11:15:05.051Z,100486.66
2022-09-10T11:16:08.032Z,100485.39
2022-09-10T11:17:10.439Z,100488.85
2022-09-10T11:18:12.911Z,100482.46
2022-09-10T11:19:15.387Z,100487.31
2022-09-10T11:20:28.339Z,100482.04
2022-09-10T11:21:23.593Z,100486.39
2022-09-10T11:22:26.234Z,100483.87
2022-09-10T11:23:28.731Z,100483.37
2022-09-10T11:24:31.169Z,100476.16
2022-09-10T11:25:33.602Z,100477.05
2022-09-10T11:26:36.248Z,100471.37
2022-09-10T11:27:38.707Z,100484.55
2022-09-10T11:28:41.621Z,100476.06
2022-09-10T11:29:44.279Z,100476.72
2022-09-10T11:30:46.987Z,100475.38
2022-09-10T11:31:49.495Z,100474.72
2022-09-10T11:32:51.942Z,100465.05
2022-09-10T11:33:54.420Z,100468.37
2022-09-10T11:34:56.900Z,100472.37
2022-09-10T11:35:59.352Z,100455.56
2022-09-10T11:37:02.011Z,100461.54
2022-09-10T11:38:04.459Z,100463.05
2022-09-10T11:39:06.943Z,100463.56
2022-09-10T11:40:09.717Z,100460.90
2022-09-10T11:41:12.337Z,100457.05
2022-09-10T11:42:15.392Z,100458.38
2022-09-10T11:43:18.035Z,100457.20
2022-09-10T11:44:20.525Z,100463.72
2022-09-10T11:45:22.978Z,100459.66
2022-09-10T11:46:25.801Z,100459.14
2022-09-10T11:47:28.382Z,100457.81
2022-09-10T11:48:30.825Z,100454.29
2022-09-10T11:49:33.530Z,100461.31
2022-09-10T11:50:36.076Z,100453.69
2022-09-10T11:51:38.727Z,100453.67
2022-09-10T11:52:41.182Z,100449.31
2022-09-10T11:53:43.629Z,100442.97
2022-09-10T11:54:46.142Z,100440.30
2022-09-10T11:55:48.585Z,100438.58
2022-09-10T11:56:51.233Z,100441.52
2022-09-10T11:57:53.678Z,100437.23